Time;durP1;ratioP1;P1;durP2;ratioP2;P2;SDS_P1;SDS_P2;PMS_P1;PMS_P2;Temp;Humidity;BMP_temperature;BMP_pressure;BME280_temperature;BME280_humidity;BME280_pressure;Samples;Min_cycle;Max_cycle;Signal;HPM_P1;HPM_P2
2022/04/11 00:01:48;;;;;;;7.20;1.10;;;;;;;;;;5110491;28;20051;-74
2022/04/11 00:04:18;;;;;;;2.70;1.13;;;;;;;;;;5111137;28;20044;-74
2022/04/11 00:06:48;;;;;;;4.38;1.13;;;;;;;;;;5110166;28;20047;-76
2022/04/11 00:09:17;;;;;;;4.25;1.50;;;;;;;;;;5110211;28;20044;-76
2022/04/11 00:11:47;;;;;;;5.47;1.40;;;;;;;;;;5109360;28;20057;-76
2022/04/11 00:14:17;;;;;;;2.22;1.10;;;;;;;;;;5106746;28;20417;-74
2022/04/11 00:16:47;;;;;;;7.90;1.48;;;;;;;;;;5105917;28;20055;-76
2022/04/11 00:19:17;;;;;;;5.38;1.17;;;;;;;;;;5109566;28;20043;-75
2022/04/11 00:21:48;;;;;;;3.72;1.45;;;;;;;;;;5109147;28;20040;-76
2022/04/11 00:24:18;;;;;;;3.67;1.40;;;;;;;;;;5108994;28;20684;-75
2022/04/11 00:26:48;;;;;;;3.45;1.48;;;;;;;;;;5109095;28;20040;-76
2022/04/11 00:29:18;;;;;;;6.00;1.70;;;;;;;;;;5109409;28;20047;-74
2022/04/11 00:31:49;;;;;;;7.45;1.90;;;;;;;;;;5090474;28;20395;-76
2022/04/11 00:34:19;;;;;;;6.00;1.42;;;;;;;;;;5109227;28;20058;-76
2022/04/11 00:36:48;;;;;;;5.63;1.45;;;;;;;;;;5089947;28;20059;-76
2022/04/11 00:39:18;;;;;;;3.63;1.60;;;;;;;;;;5108109;28;20058;-75
2022/04/11 00:41:49;;;;;;;4.75;1.40;;;;;;;;;;5091021;28;20056;-76
2022/04/11 00:44:19;;;;;;;3.33;1.40;;;;;;;;;;5089609;28;20048;-76
2022/04/11 00:46:49;;;;;;;2.22;1.33;;;;;;;;;;5108559;28;20052;-76
2022/04/11 00:49:19;;;;;;;4.63;1.17;;;;;;;;;;5107290;28;20047;-76
2022/04/11 00:51:49;;;;;;;5.03;1.40;;;;;;;;;;5088271;28;20051;-77
2022/04/11 00:54:20;;;;;;;4.60;1.27;;;;;;;;;;5089594;28;20055;-77
2022/04/11 00:56:50;;;;;;;3.80;1.40;;;;;;;;;;5089139;28;20426;-76
2022/04/11 00:59:21;;;;;;;7.43;1.23;;;;;;;;;;5090839;28;20054;-76
2022/04/11 01:01:51;;;;;;;3.78;1.38;;;;;;;;;;5108615;28;20687;-76
2022/04/11 01:04:26;;;;;;;6.22;1.52;;;;;;;;;;5107818;28;20047;-76
2022/04/11 01:07:01;;;;;;;12.38;2.05;;;;;;;;;;5090190;28;20533;-76
2022/04/11 01:09:31;;;;;;;7.18;1.55;;;;;;;;;;5073171;28;20133;-76
2022/04/11 01:12:03;;;;;;;4.18;1.10;;;;;;;;;;5089659;28;20506;-75
2022/04/11 01:14:34;;;;;;;3.22;1.40;;;;;;;;;;5088624;28;20426;-75
2022/04/11 01:17:04;;;;;;;11.60;1.55;;;;;;;;;;5108155;28;20044;-74
2022/04/11 01:19:34;;;;;;;1.92;1.13;;;;;;;;;;5107709;28;20048;-75
2022/04/11 01:22:04;;;;;;;7.88;1.73;;;;;;;;;;5089301;28;20052;-76
2022/04/11 01:24:37;;;;;;;4.05;1.08;;;;;;;;;;5072519;28;20083;-76
2022/04/11 01:27:08;;;;;;;7.72;1.95;;;;;;;;;;5106905;28;20055;-76
2022/04/11 01:29:37;;;;;;;6.47;1.35;;;;;;;;;;5107729;28;20047;-75
2022/04/11 01:32:08;;;;;;;5.18;1.35;;;;;;;;;;5089363;28;20058;-76
2022/04/11 01:34:41;;;;;;;2.92;1.25;;;;;;;;;;5089199;28;20056;-75
2022/04/11 01:37:11;;;;;;;11.10;2.17;;;;;;;;;;5088963;28;20422;-73
2022/04/11 01:39:41;;;;;;;7.35;1.25;;;;;;;;;;5107137;28;20051;-74
2022/04/11 01:42:12;;;;;;;8.93;1.75;;;;;;;;;;5088788;28;20506;-74
2022/04/11 01:44:42;;;;;;;7.88;1.48;;;;;;;;;;5088627;28;20052;-75
2022/04/11 01:47:12;;;;;;;4.43;1.27;;;;;;;;;;5088234;28;20055;-75
2022/04/11 01:49:45;;;;;;;5.53;1.17;;;;;;;;;;5108478;28;20042;-74
2022/04/11 01:52:15;;;;;;;5.65;1.20;;;;;;;;;;5088266;28;20059;-74
2022/04/11 01:54:45;;;;;;;2.58;1.30;;;;;;;;;;5088441;28;20047;-74
2022/04/11 01:57:36;;;;;;;7.28;1.52;;;;;;;;;;5088902;28;20047;-75
2022/04/11 02:00:06;;;;;;;7.22;1.60;;;;;;;;;;5088374;28;20059;-74
2022/04/11 02:02:41;;;;;;;6.22;1.33;;;;;;;;;;5090724;28;20062;-75
2022/04/11 02:05:12;;;;;;;6.22;1.52;;;;;;;;;;5088342;28;20078;-74
2022/04/11 02:07:43;;;;;;;6.10;1.40;;;;;;;;;;5088607;28;20066;-75
2022/04/11 02:10:13;;;;;;;3.80;1.23;;;;;;;;;;5088382;28;20047;-75
2022/04/11 02:12:44;;;;;;;5.70;1.48;;;;;;;;;;5107354;28;20058;-74
2022/04/11 02:15:14;;;;;;;6.07;1.50;;;;;;;;;;5087737;28;20059;-75
2022/04/11 02:17:50;;;;;;;5.68;1.40;;;;;;;;;;5107213;28;20522;-75
2022/04/11 02:20:20;;;;;;;6.15;1.33;;;;;;;;;;5106806;28;20055;-74
2022/04/11 02:22:55;;;;;;;3.08;1.25;;;;;;;;;;5107242;28;20387;-75
2022/04/11 02:25:27;;;;;;;7.63;1.48;;;;;;;;;;5107277;28;20054;-75
2022/04/11 02:27:58;;;;;;;6.93;1.20;;;;;;;;;;5088133;28;20048;-74
2022/04/11 02:30:29;;;;;;;;;;;;;;;;;;5089047;28;20051;-74
2022/04/11 02:32:58;;;;;;;7.65;1.60;;;;;;;;;;5106649;28;19926;-75
2022/04/11 02:35:28;;;;;;;4.05;1.60;;;;;;;;;;5088120;28;20055;-75
2022/04/11 02:37:59;;;;;;;5.57;1.63;;;;;;;;;;5088298;28;20051;-74
2022/04/11 02:40:30;;;;;;;6.20;1.45;;;;;;;;;;5086907;28;20063;-75
2022/04/11 02:43:10;;;;;;;4.82;1.52;;;;;;;;;;5084463;28;20063;-74
2022/04/11 02:45:47;;;;;;;4.53;1.52;;;;;;;;;;5085572;28;20048;-75
2022/04/11 02:48:23;;;;;;;4.25;1.70;;;;;;;;;;5084317;28;20055;-74
2022/04/11 02:51:06;;;;;;;4.00;1.35;;;;;;;;;;5083768;28;20059;-75
2022/04/11 02:53:46;;;;;;;7.07;1.75;;;;;;;;;;5084433;28;20059;-75
2022/04/11 02:56:17;;;;;;;8.75;2.17;;;;;;;;;;5086333;28;20040;-75
2022/04/11 02:58:47;;;;;;;3.97;1.65;;;;;;;;;;5083940;28;20067;-74
2022/04/11 03:01:17;;;;;;;5.53;1.75;;;;;;;;;;5083606;28;20051;-75
2022/04/11 03:03:50;;;;;;;8.18;1.90;;;;;;;;;;5084159;28;20055;-76
2022/04/11 03:06:21;;;;;;;9.77;1.67;;;;;;;;;;5084697;28;20055;-74
2022/04/11 03:08:52;;;;;;;3.42;1.83;;;;;;;;;;5084366;28;20058;-75
2022/04/11 03:11:29;;;;;;;7.13;1.80;;;;;;;;;;5100871;28;20051;-75
2022/04/11 03:14:01;;;;;;;8.38;1.75;;;;;;;;;;5083397;28;20074;-75
2022/04/11 03:16:31;;;;;;;;;;;;;;;;;;5086377;28;20400;-75
2022/04/11 03:19:02;;;;;;;6.05;1.83;;;;;;;;;;5084089;28;19947;-74
2022/04/11 03:21:33;;;;;;;8.55;1.77;;;;;;;;;;5100740;28;20060;-75
2022/04/11 03:24:09;;;;;;;3.88;1.90;;;;;;;;;;5084548;28;20628;-75
2022/04/11 03:26:40;;;;;;;3.03;1.63;;;;;;;;;;5101615;28;20048;-75
2022/04/11 03:29:15;;;;;;;3.67;1.70;;;;;;;;;;5084178;28;20051;-74
2022/04/11 03:31:46;;;;;;;3.40;1.88;;;;;;;;;;5085507;28;20048;-74
2022/04/11 03:34:18;;;;;;;2.58;1.50;;;;;;;;;;5100953;28;20422;-74
2022/04/11 03:36:48;;;;;;;5.17;1.70;;;;;;;;;;5083946;28;20407;-75
2022/04/11 03:39:18;;;;;;;3.88;1.70;;;;;;;;;;5084307;28;20059;-74
2022/04/11 03:41:50;;;;;;;5.47;1.80;;;;;;;;;;5084296;28;20052;-76
2022/04/11 03:44:25;;;;;;;6.90;2.20;;;;;;;;;;5083909;28;20064;-74
2022/04/11 03:47:00;;;;;;;7.18;2.33;;;;;;;;;;5085816;28;20484;-74
2022/04/11 03:49:33;;;;;;;8.02;2.28;;;;;;;;;;5084050;28;20083;-74
2022/04/11 03:52:16;;;;;;;4.13;1.98;;;;;;;;;;5087212;28;20048;-74
2022/04/11 03:54:46;;;;;;;3.93;2.00;;;;;;;;;;5088081;28;20056;-74
2022/04/11 03:57:18;;;;;;;3.53;2.00;;;;;;;;;;5086851;28;20059;-74
2022/04/11 03:59:51;;;;;;;3.00;2.22;;;;;;;;;;5088403;28;20052;-74
2022/04/11 04:02:22;;;;;;;;;;;;;;;;;;5087456;28;20056;-74
2022/04/11 04:04:51;;;;;;;3.72;2.20;;;;;;;;;;5087153;28;19931;-74
2022/04/11 04:07:25;;;;;;;6.45;2.50;;;;;;;;;;5087179;28;20561;-74
2022/04/11 04:09:56;;;;;;;3.35;2.65;;;;;;;;;;5086812;28;20060;-74
2022/04/11 04:12:25;;;;;;;10.13;2.67;;;;;;;;;;5089558;28;20056;-74
2022/04/11 04:15:16;;;;;;;3.35;2.60;;;;;;;;;;5088674;28;20052;-74
2022/04/11 04:17:53;;;;;;;6.07;2.80;;;;;;;;;;5087106;28;20052;-74
2022/04/11 04:20:26;;;;;;;4.68;2.70;;;;;;;;;;5086524;28;20055;-74
2022/04/11 04:22:58;;;;;;;3.15;2.60;;;;;;;;;;5086561;28;20051;-75
2022/04/11 04:25:36;;;;;;;3.72;2.67;;;;;;;;;;5103999;28;20055;-74
2022/04/11 04:28:07;;;;;;;5.05;2.80;;;;;;;;;;5071224;28;20059;-74
2022/04/11 04:30:39;;;;;;;6.15;2.70;;;;;;;;;;5086117;28;20412;-74
2022/04/11 04:33:09;;;;;;;3.35;2.53;;;;;;;;;;5104060;28;20059;-75
2022/04/11 04:35:40;;;;;;;5.45;3.15;;;;;;;;;;5087089;28;20052;-74
2022/04/11 04:38:11;;;;;;;7.25;3.17;;;;;;;;;;5086943;28;20052;-74
2022/04/11 04:40:48;;;;;;;4.75;3.15;;;;;;;;;;5086690;28;20048;-74
2022/04/11 04:43:22;;;;;;;5.95;2.78;;;;;;;;;;5103541;28;20059;-74
2022/04/11 04:45:54;;;;;;;7.50;2.80;;;;;;;;;;5086263;28;20519;-74
2022/04/11 04:48:38;;;;;;;5.80;3.00;;;;;;;;;;5087332;28;20048;-75
2022/04/11 04:51:10;;;;;;;3.83;3.20;;;;;;;;;;5085976;28;20498;-75
2022/04/11 04:53:46;;;;;;;7.47;3.20;;;;;;;;;;5086772;28;20557;-74
2022/04/11 04:56:17;;;;;;;6.05;3.00;;;;;;;;;;5103518;28;20052;-75
2022/04/11 04:58:49;;;;;;;4.40;2.90;;;;;;;;;;5086446;28;20065;-75
2022/04/11 05:01:19;;;;;;;3.53;2.50;;;;;;;;;;5086199;28;20294;-75
2022/04/11 05:03:50;;;;;;;5.30;3.03;;;;;;;;;;5088168;28;20509;-75
2022/04/11 05:06:24;;;;;;;4.90;2.80;;;;;;;;;;5102859;28;20676;-74
2022/04/11 05:08:55;;;;;;;4.93;2.70;;;;;;;;;;5085741;28;20060;-74
2022/04/11 05:11:25;;;;;;;5.68;2.50;;;;;;;;;;5102722;28;20494;-74
2022/04/11 05:13:55;;;;;;;4.35;2.60;;;;;;;;;;5086498;28;20048;-75
2022/04/11 05:16:28;;;;;;;4.00;2.20;;;;;;;;;;5085672;28;20044;-75
2022/04/11 05:18:58;;;;;;;3.20;2.35;;;;;;;;;;5085667;28;20044;-75
2022/04/11 05:21:29;;;;;;;3.57;2.27;;;;;;;;;;5085608;28;20054;-75
2022/04/11 05:24:08;;;;;;;4.15;2.00;;;;;;;;;;5085219;28;20056;-76
2022/04/11 05:26:38;;;;;;;7.57;2.47;;;;;;;;;;5085806;28;20051;-76
2022/04/11 05:29:08;;;;;;;5.78;2.22;;;;;;;;;;5085019;28;20537;-76
2022/04/11 05:31:39;;;;;;;3.92;2.05;;;;;;;;;;5085337;28;20048;-74
2022/04/11 05:34:09;;;;;;;;;;;;;;;;;;5086262;28;20056;-75
2022/04/11 05:36:39;;;;;;;3.88;1.88;;;;;;;;;;5087583;28;19924;-74
2022/04/11 05:39:12;;;;;;;2.35;2.00;;;;;;;;;;5086111;28;20624;-76
2022/04/11 05:41:42;;;;;;;4.70;2.30;;;;;;;;;;5085275;28;20048;-74
2022/04/11 05:44:12;;;;;;;4.75;2.72;;;;;;;;;;5085417;28;20064;-74
2022/04/11 05:46:46;;;;;;;7.13;2.25;;;;;;;;;;5086123;28;20451;-75
2022/04/11 05:49:25;;;;;;;4.35;2.20;;;;;;;;;;5101539;28;20059;-74
2022/04/11 05:51:55;;;;;;;3.22;2.13;;;;;;;;;;5087602;28;20051;-75
2022/04/11 05:54:25;;;;;;;3.22;2.38;;;;;;;;;;5085337;28;20051;-74
2022/04/11 05:56:57;;;;;;;4.45;2.17;;;;;;;;;;5084756;28;20099;-74
2022/04/11 05:59:27;;;;;;;8.57;2.28;;;;;;;;;;5085802;28;20059;-75
2022/04/11 06:01:58;;;;;;;3.70;2.30;;;;;;;;;;5084771;28;20450;-74
2022/04/11 06:04:28;;;;;;;4.90;2.00;;;;;;;;;;5087406;28;20047;-74
2022/04/11 06:06:59;;;;;;;7.77;2.03;;;;;;;;;;5084445;28;20052;-74
2022/04/11 06:09:29;;;;;;;7.57;2.40;;;;;;;;;;5084996;28;20430;-74
2022/04/11 06:11:59;;;;;;;7.75;2.38;;;;;;;;;;5084486;28;20151;-74
2022/04/11 06:14:31;;;;;;;6.55;2.08;;;;;;;;;;5101159;28;20058;-74
2022/04/11 06:17:02;;;;;;;7.15;2.00;;;;;;;;;;5084265;28;20052;-75
2022/04/11 06:19:32;;;;;;;4.10;1.70;;;;;;;;;;5085412;28;20731;-74
2022/04/11 06:22:02;;;;;;;6.20;1.80;;;;;;;;;;5084289;28;20707;-74
2022/04/11 06:24:32;;;;;;;2.80;1.48;;;;;;;;;;5084440;28;20052;-75
2022/04/11 06:27:02;;;;;;;3.00;1.20;;;;;;;;;;5084543;28;20063;-75
2022/04/11 06:29:33;;;;;;;1.80;1.40;;;;;;;;;;5084694;28;20055;-75
2022/04/11 06:32:05;;;;;;;2.05;1.50;;;;;;;;;;5084396;28;20052;-75
2022/04/11 06:34:38;;;;;;;2.40;1.50;;;;;;;;;;5101276;28;20529;-76
2022/04/11 06:37:08;;;;;;;4.00;1.40;;;;;;;;;;5084981;28;20043;-74
2022/04/11 06:39:39;;;;;;;1.98;1.38;;;;;;;;;;5101178;28;20476;-75
2022/04/11 06:42:09;;;;;;;;;;;;;;;;;;5084633;28;20422;-75
2022/04/11 06:44:39;;;;;;;4.03;1.52;;;;;;;;;;5068448;28;19946;-75
2022/04/11 06:47:13;;;;;;;2.55;1.48;;;;;;;;;;5084493;28;20055;-74
2022/04/11 06:49:43;;;;;;;7.38;1.63;;;;;;;;;;5085103;28;20048;-75
2022/04/11 06:52:13;;;;;;;3.20;1.60;;;;;;;;;;5086726;28;20052;-75
2022/04/11 06:54:46;;;;;;;6.80;1.77;;;;;;;;;;5086859;28;20051;-74
2022/04/11 06:57:16;;;;;;;6.13;1.98;;;;;;;;;;5086895;28;20044;-75
2022/04/11 06:59:46;;;;;;;4.00;1.60;;;;;;;;;;5086697;28;20491;-75
2022/04/11 07:02:17;;;;;;;3.28;1.40;;;;;;;;;;5086162;28;20063;-75
2022/04/11 07:04:47;;;;;;;4.35;1.50;;;;;;;;;;5085651;28;20503;-74
2022/04/11 07:07:17;;;;;;;8.25;1.75;;;;;;;;;;5086254;28;20648;-75
2022/04/11 07:09:47;;;;;;;3.65;1.52;;;;;;;;;;5086497;28;20419;-75
2022/04/11 07:12:16;;;;;;;4.22;1.27;;;;;;;;;;5086138;28;20059;-75
2022/04/11 07:14:46;;;;;;;2.85;1.15;;;;;;;;;;5086926;28;20056;-74
2022/04/11 07:17:16;;;;;;;2.78;1.40;;;;;;;;;;5083908;28;20056;-75
2022/04/11 07:19:46;;;;;;;4.43;1.10;;;;;;;;;;5086240;28;20051;-75
2022/04/11 07:22:23;;;;;;;1.38;1.20;;;;;;;;;;5086102;28;20048;-75
2022/04/11 07:24:55;;;;;;;3.60;1.30;;;;;;;;;;5086072;28;20055;-74
2022/04/11 07:27:25;;;;;;;13.38;1.50;;;;;;;;;;5090238;28;20051;-75
2022/04/11 07:29:54;;;;;;;9.65;1.50;;;;;;;;;;5090203;28;20052;-74
2022/04/11 07:32:24;;;;;;;5.18;1.60;;;;;;;;;;5090160;28;20051;-75
2022/04/11 07:34:58;;;;;;;8.43;1.33;;;;;;;;;;5089771;28;20395;-74
2022/04/11 07:37:28;;;;;;;4.13;1.50;;;;;;;;;;5089841;28;20040;-75
2022/04/11 07:39:58;;;;;;;1.98;1.27;;;;;;;;;;5090019;28;20418;-75
2022/04/11 07:42:28;;;;;;;1.63;1.10;;;;;;;;;;5092405;28;20055;-75
2022/04/11 07:44:58;;;;;;;3.88;1.20;;;;;;;;;;5109856;28;20603;-75
2022/04/11 07:47:28;;;;;;;3.70;1.33;;;;;;;;;;5109803;28;20062;-75
2022/04/11 07:50:04;;;;;;;2.38;1.10;;;;;;;;;;5109812;28;20389;-75
2022/04/11 07:52:37;;;;;;;;;;;;;;;;;;5092689;28;20525;-75
2022/04/11 07:55:09;;;;;;;4.85;1.40;;;;;;;;;;5109946;28;19931;-75
2022/04/11 07:57:40;;;;;;;6.03;1.27;;;;;;;;;;5108833;28;20534;-76
2022/04/11 08:00:26;;;;;;;5.07;1.50;;;;;;;;;;5110983;28;20040;-74
2022/04/11 08:02:57;;;;;;;5.93;1.42;;;;;;;;;;5109715;28;20043;-75
2022/04/11 08:05:27;;;;;;;1.20;1.10;;;;;;;;;;5109786;28;20059;-75
2022/04/11 08:07:57;;;;;;;4.63;1.40;;;;;;;;;;5109491;28;20054;-75
2022/04/11 08:10:28;;;;;;;8.20;1.60;;;;;;;;;;5110067;28;20506;-75
2022/04/11 08:12:59;;;;;;;7.93;1.20;;;;;;;;;;5091703;28;20403;-75
2022/04/11 08:15:32;;;;;;;2.47;1.25;;;;;;;;;;5109478;28;20043;-75
2022/04/11 08:18:02;;;;;;;3.88;1.45;;;;;;;;;;5109120;28;20043;-75
2022/04/11 08:20:32;;;;;;;8.65;1.77;;;;;;;;;;5108988;28;20047;-75
2022/04/11 08:23:02;;;;;;;3.03;1.38;;;;;;;;;;5109734;28;20043;-75
2022/04/11 08:25:32;;;;;;;2.95;1.33;;;;;;;;;;5109381;28;20502;-74
2022/04/11 08:28:03;;;;;;;4.72;1.67;;;;;;;;;;5109221;28;20051;-74
2022/04/11 08:30:33;;;;;;;3.65;1.60;;;;;;;;;;5109821;28;20051;-74
2022/04/11 08:33:03;;;;;;;2.53;1.50;;;;;;;;;;5108948;28;20059;-75
2022/04/11 08:35:33;;;;;;;5.80;1.77;;;;;;;;;;5108665;28;20062;-75
2022/04/11 08:38:03;;;;;;;6.68;1.90;;;;;;;;;;5108052;28;20566;-75
2022/04/11 08:40:33;;;;;;;6.35;2.10;;;;;;;;;;5107803;28;20421;-75
2022/04/11 08:43:02;;;;;;;5.07;1.77;;;;;;;;;;5108404;28;20055;-76
2022/04/11 08:45:33;;;;;;;4.80;2.80;;;;;;;;;;5108403;28;20047;-75
2022/04/11 08:48:03;;;;;;;2.97;2.22;;;;;;;;;;5108890;28;20040;-75
2022/04/11 08:50:33;;;;;;;5.38;2.30;;;;;;;;;;5108737;28;20054;-75
2022/04/11 08:53:03;;;;;;;4.95;3.20;;;;;;;;;;5108745;28;20052;-75
2022/04/11 08:55:34;;;;;;;12.17;5.70;;;;;;;;;;5109014;28;20048;-75
2022/04/11 08:58:04;;;;;;;14.68;3.70;;;;;;;;;;5109677;28;20402;-76
2022/04/11 09:00:33;;;;;;;8.73;4.97;;;;;;;;;;5109493;28;20063;-75
2022/04/11 09:03:05;;;;;;;7.88;6.45;;;;;;;;;;5109531;28;20514;-75
2022/04/11 09:05:36;;;;;;;11.05;5.00;;;;;;;;;;5109278;28;20055;-74
2022/04/11 09:08:06;;;;;;;9.88;4.68;;;;;;;;;;5091466;28;20058;-75
2022/04/11 09:10:37;;;;;;;8.27;3.90;;;;;;;;;;5124646;28;20059;-76
2022/04/11 09:13:08;;;;;;;9.32;3.35;;;;;;;;;;5126068;28;20039;-75
2022/04/11 09:15:40;;;;;;;6.35;2.88;;;;;;;;;;5127393;28;20050;-76
2022/04/11 09:18:11;;;;;;;4.03;3.03;;;;;;;;;;5132601;28;20027;-76
2022/04/11 09:20:42;;;;;;;5.88;3.55;;;;;;;;;;5134843;28;20040;-75
2022/04/11 09:23:19;;;;;;;12.85;3.75;;;;;;;;;;5111258;28;20043;-75
2022/04/11 09:25:49;;;;;;;4.90;3.15;;;;;;;;;;5107757;28;20043;-74
2022/04/11 09:28:20;;;;;;;5.10;2.78;;;;;;;;;;5108070;28;20048;-75
2022/04/11 09:30:50;;;;;;;5.28;3.03;;;;;;;;;;5108429;28;20418;-75
2022/04/11 09:33:20;;;;;;;7.00;3.17;;;;;;;;;;5108581;28;20491;-75
2022/04/11 09:35:51;;;;;;;4.60;2.53;;;;;;;;;;5107845;28;20498;-75
2022/04/11 09:38:22;;;;;;;13.88;3.35;;;;;;;;;;5108621;28;20048;-75
2022/04/11 09:40:54;;;;;;;8.20;2.63;;;;;;;;;;5108119;28;20043;-77
2022/04/11 09:43:32;;;;;;;3.97;2.30;;;;;;;;;;5108403;28;20082;-75
2022/04/11 09:46:04;;;;;;;7.32;2.20;;;;;;;;;;5090333;28;20414;-77
2022/04/11 09:48:37;;;;;;;10.20;2.45;;;;;;;;;;5107849;28;20048;-77
2022/04/11 09:51:13;;;;;;;4.47;2.13;;;;;;;;;;5107936;28;20051;-77
2022/04/11 09:53:45;;;;;;;4.05;2.45;;;;;;;;;;5108953;28;20048;-75
2022/04/11 09:56:19;;;;;;;9.32;3.25;;;;;;;;;;5089542;28;20077;-74
2022/04/11 09:58:51;;;;;;;7.72;3.45;;;;;;;;;;5109123;28;20399;-76
2022/04/11 10:01:23;;;;;;;6.47;3.08;;;;;;;;;;5108214;28;20051;-77
2022/04/11 10:03:54;;;;;;;6.28;2.63;;;;;;;;;;5107756;28;20051;-76
2022/04/11 10:06:23;;;;;;;3.00;1.92;;;;;;;;;;5107831;28;20062;-75
2022/04/11 10:08:53;;;;;;;6.75;1.85;;;;;;;;;;5107619;28;20051;-75
2022/04/11 10:11:23;;;;;;;4.13;1.98;;;;;;;;;;5108137;28;20109;-78
2022/04/11 10:13:53;;;;;;;3.15;1.90;;;;;;;;;;5107662;28;20051;-76
2022/04/11 10:16:23;;;;;;;3.10;1.67;;;;;;;;;;5089507;28;20529;-76
2022/04/11 10:19:01;;;;;;;4.72;1.58;;;;;;;;;;5088358;28;20055;-75
2022/04/11 10:21:32;;;;;;;1.95;1.65;;;;;;;;;;5107371;28;20047;-75
2022/04/11 10:24:33;;;;;;;5.13;1.70;;;;;;;;;;5088562;28;20048;-76
2022/04/11 10:27:38;;;;;;;1.98;1.30;;;;;;;;;;5099531;28;20422;-76
2022/04/11 10:30:29;;;;;;;7.07;1.75;;;;;;;;;;5055702;28;20406;-74
2022/04/11 10:33:00;;;;;;;4.47;1.52;;;;;;;;;;5105446;28;20047;-75
2022/04/11 10:35:40;;;;;;;2.78;1.42;;;;;;;;;;5107808;28;20039;-75
2022/04/11 10:38:12;;;;;;;2.72;1.48;;;;;;;;;;5107760;28;20047;-75
2022/04/11 10:40:50;;;;;;;8.95;1.42;;;;;;;;;;5107115;28;20042;-76
2022/04/11 10:43:40;;;;;;;6.15;1.52;;;;;;;;;;5087742;28;20052;-75
2022/04/11 10:46:09;;;;;;;1.30;1.20;;;;;;;;;;5107086;28;20051;-74
2022/04/11 10:48:59;;;;;;;4.70;1.67;;;;;;;;;;5106953;28;20055;-79
2022/04/11 10:51:29;;;;;;;4.93;1.50;;;;;;;;;;5106534;28;20072;-75
2022/04/11 10:54:19;;;;;;;3.58;1.45;;;;;;;;;;5106063;28;20050;-80
2022/04/11 10:57:09;;;;;;;6.38;1.38;;;;;;;;;;5106947;28;20052;-76
2022/04/11 11:00:06;;;;;;;6.82;1.80;;;;;;;;;;5108232;28;20055;-75
2022/04/11 11:05:35;;;;;;;4.60;2.30;;;;;;;;;;5111177;28;20394;-74
2022/04/11 11:08:14;;;;;;;7.25;2.45;;;;;;;;;;5110952;28;20040;-76
2022/04/11 11:10:49;;;;;;;5.82;2.17;;;;;;;;;;5110949;28;20043;-75
2022/04/11 11:13:41;;;;;;;7.13;2.22;;;;;;;;;;5092870;28;20055;-75
2022/04/11 11:16:14;;;;;;;5.35;2.38;;;;;;;;;;5091574;28;20051;-76
2022/04/11 11:19:01;;;;;;;6.43;1.73;;;;;;;;;;5110576;28;20062;-74
2022/04/11 11:21:36;;;;;;;5.57;1.88;;;;;;;;;;5091840;28;20047;-75
2022/04/11 11:26:48;;;;;;;9.13;2.70;;;;;;;;;;5111249;28;20043;-76
2022/04/11 11:29:25;;;;;;;10.13;2.25;;;;;;;;;;5110187;28;20502;-76
2022/04/11 11:32:05;;;;;;;12.70;2.78;;;;;;;;;;5090050;28;20059;-76
2022/04/11 11:34:37;;;;;;;2.85;1.65;;;;;;;;;;5111816;28;20044;-76
2022/04/11 11:37:08;;;;;;;;;;;;;;;;;;5111082;28;20043;-76
2022/04/11 11:39:40;;;;;;;6.37;2.87;;;;;;;;;;5110150;28;19924;-76
2022/04/11 11:42:18;;;;;;;2.58;2.00;;;;;;;;;;5110708;28;20474;-76
2022/04/11 11:44:49;;;;;;;4.95;2.03;;;;;;;;;;5109927;28;20524;-76
2022/04/11 11:47:29;;;;;;;5.57;2.15;;;;;;;;;;5092321;28;20051;-77
2022/04/11 11:50:07;;;;;;;3.30;1.63;;;;;;;;;;5110774;28;20047;-77
2022/04/11 11:52:39;;;;;;;11.50;2.70;;;;;;;;;;5110720;28;20406;-75
2022/04/11 11:55:09;;;;;;;3.10;1.75;;;;;;;;;;5109745;28;20415;-76
2022/04/11 11:57:42;;;;;;;7.07;2.22;;;;;;;;;;5110476;28;20052;-76
2022/04/11 12:00:13;;;;;;;4.18;1.98;;;;;;;;;;5110272;28;20050;-76
2022/04/11 12:05:35;;;;;;;6.82;1.95;;;;;;;;;;5109869;28;20039;-76
2022/04/11 12:08:08;;;;;;;4.90;1.80;;;;;;;;;;5109998;28;20055;-76
2022/04/11 12:10:42;;;;;;;2.97;1.60;;;;;;;;;;5109637;28;20050;-76
2022/04/11 12:13:25;;;;;;;10.85;1.90;;;;;;;;;;5091148;28;20494;-76
2022/04/11 12:16:21;;;;;;;9.13;4.20;;;;;;;;;;5110238;28;20478;-77
2022/04/11 12:18:56;;;;;;;7.32;3.42;;;;;;;;;;5109644;28;20490;-76
2022/04/11 12:21:34;;;;;;;7.78;1.50;;;;;;;;;;5109097;28;20048;-77
2022/04/11 12:24:09;;;;;;;2.83;1.85;;;;;;;;;;5109404;28;20043;-76
2022/04/11 12:26:51;;;;;;;5.60;1.50;;;;;;;;;;5090804;28;20071;-76
2022/04/11 12:29:21;;;;;;;6.28;2.10;;;;;;;;;;5109370;28;20040;-77
2022/04/11 12:32:03;;;;;;;6.30;2.80;;;;;;;;;;5089801;28;20058;-81
2022/04/11 12:34:38;;;;;;;3.67;1.50;;;;;;;;;;5109142;28;20048;-76
2022/04/11 12:37:12;;;;;;;13.95;3.40;;;;;;;;;;5109348;28;20051;-76
2022/04/11 12:39:51;;;;;;;9.15;1.92;;;;;;;;;;5109465;28;20049;-76
2022/04/11 12:42:26;;;;;;;6.05;1.95;;;;;;;;;;5108776;28;20048;-76
2022/04/11 12:45:04;;;;;;;3.72;1.42;;;;;;;;;;5108572;28;20054;-76
2022/04/11 12:48:00;;;;;;;8.98;2.47;;;;;;;;;;5109074;28;20403;-76
2022/04/11 12:50:31;;;;;;;4.22;1.45;;;;;;;;;;5108936;28;20044;-78
2022/04/11 12:53:03;;;;;;;2.33;1.48;;;;;;;;;;5108585;28;20051;-76
2022/04/11 12:55:34;;;;;;;;;;;;;;;;;;5109512;28;20044;-76
2022/04/11 12:58:06;;;;;;;3.40;1.38;;;;;;;;;;5074316;28;20382;-76
2022/04/11 13:00:39;;;;;;;2.20;1.30;;;;;;;;;;5108944;28;20073;-77
2022/04/11 13:03:09;;;;;;;8.77;1.52;;;;;;;;;;5108098;28;20058;-76
2022/04/11 13:05:39;;;;;;;1.50;1.10;;;;;;;;;;5109906;28;20039;-76
2022/04/11 13:08:11;;;;;;;3.17;1.50;;;;;;;;;;5108487;28;20061;-75
2022/04/11 13:10:44;;;;;;;6.43;1.20;;;;;;;;;;5108448;28;20387;-75
2022/04/11 13:13:14;;;;;;;1.95;1.30;;;;;;;;;;5090075;28;20078;-80
2022/04/11 13:18:32;;;;;;;2.50;1.75;;;;;;;;;;5108287;28;20048;-77
2022/04/11 13:21:02;;;;;;;1.00;0.90;;;;;;;;;;5107301;28;20063;-77
2022/04/11 13:23:33;;;;;;;3.08;1.38;;;;;;;;;;5107324;28;20445;-76
2022/04/11 13:26:02;;;;;;;4.00;1.27;;;;;;;;;;5108152;28;20047;-76
2022/04/11 13:28:33;;;;;;;1.83;0.88;;;;;;;;;;5108741;28;20047;-76
2022/04/11 13:31:03;;;;;;;2.47;1.10;;;;;;;;;;5091091;28;20043;-76
2022/04/11 13:33:33;;;;;;;4.03;1.67;;;;;;;;;;5108067;28;20051;-78
2022/04/11 13:36:04;;;;;;;2.40;0.95;;;;;;;;;;5089897;28;20048;-76
2022/04/11 13:38:34;;;;;;;6.95;1.23;;;;;;;;;;5107729;28;20055;-75
2022/04/11 13:41:04;;;;;;;6.03;0.90;;;;;;;;;;5108088;28;20048;-76
2022/04/11 13:43:34;;;;;;;1.60;0.80;;;;;;;;;;5107735;28;20055;-76
2022/04/11 13:46:10;;;;;;;1.42;0.85;;;;;;;;;;5107750;28;20537;-75
2022/04/11 13:48:41;;;;;;;2.30;0.80;;;;;;;;;;5087866;28;20525;-76
2022/04/11 13:51:11;;;;;;;1.75;1.13;;;;;;;;;;5107445;28;20056;-76
2022/04/11 13:53:41;;;;;;;3.72;1.10;;;;;;;;;;5089924;28;20055;-75
2022/04/11 13:56:11;;;;;;;2.42;0.90;;;;;;;;;;5108182;28;20437;-78
2022/04/11 13:58:41;;;;;;;4.88;1.48;;;;;;;;;;5108160;28;20043;-76
2022/04/11 14:01:11;;;;;;;2.97;1.67;;;;;;;;;;5107918;28;20043;-76
2022/04/11 14:03:42;;;;;;;1.45;1.30;;;;;;;;;;5107938;28;20097;-76
2022/04/11 14:06:12;;;;;;;6.97;1.63;;;;;;;;;;5107151;28;20051;-79
2022/04/11 14:08:42;;;;;;;2.65;1.40;;;;;;;;;;5106995;28;21026;-79
2022/04/11 14:11:12;;;;;;;6.35;2.20;;;;;;;;;;5106979;28;20043;-76
2022/04/11 14:13:42;;;;;;;14.18;4.25;;;;;;;;;;5107071;28;20048;-76
2022/04/11 14:16:12;;;;;;;2.58;0.80;;;;;;;;;;5088964;28;20056;-76
2022/04/11 14:18:42;;;;;;;1.65;1.05;;;;;;;;;;5087679;28;20058;-76
2022/04/11 14:21:12;;;;;;;1.98;0.93;;;;;;;;;;5106578;28;20066;-77
2022/04/11 14:23:42;;;;;;;3.00;1.00;;;;;;;;;;5088331;28;20056;-75
2022/04/11 14:26:12;;;;;;;1.45;0.80;;;;;;;;;;5106870;28;20696;-76
2022/04/11 14:28:42;;;;;;;5.28;1.00;;;;;;;;;;5107383;28;20516;-78
2022/04/11 14:31:14;;;;;;;0.65;0.63;;;;;;;;;;5107533;28;20051;-75
2022/04/11 14:33:44;;;;;;;4.32;1.10;;;;;;;;;;5106819;28;20044;-77
2022/04/11 14:36:13;;;;;;;2.20;0.90;;;;;;;;;;5106289;28;20514;-77
2022/04/11 14:39:04;;;;;;;1.10;0.70;;;;;;;;;;5105952;28;20051;-77
2022/04/11 14:41:41;;;;;;;2.60;0.88;;;;;;;;;;5106188;28;20047;-76
2022/04/11 14:44:11;;;;;;;2.30;0.80;;;;;;;;;;5106293;28;20060;-76
2022/04/11 14:46:44;;;;;;;1.20;0.70;;;;;;;;;;5106492;28;20069;-76
2022/04/11 14:49:14;;;;;;;2.87;0.80;;;;;;;;;;5106048;28;20047;-76
2022/04/11 14:52:05;;;;;;;2.72;0.50;;;;;;;;;;5106141;28;20044;-76
2022/04/11 14:54:35;;;;;;;;;;;;;;;;;;5106967;28;20184;-76
2022/04/11 14:57:05;;;;;;;0.60;0.60;;;;;;;;;;5105778;28;19923;-79
2022/04/11 14:59:34;;;;;;;1.95;0.80;;;;;;;;;;5087652;28;20046;-77
2022/04/11 15:02:05;;;;;;;4.43;0.80;;;;;;;;;;5105650;28;20051;-76
2022/04/11 15:04:35;;;;;;;3.13;1.00;;;;;;;;;;5106164;28;20040;-77
2022/04/11 15:07:05;;;;;;;2.13;0.75;;;;;;;;;;5107360;28;20062;-76
2022/04/11 15:09:35;;;;;;;5.18;0.68;;;;;;;;;;5106234;28;20069;-77
2022/04/11 15:12:06;;;;;;;1.17;0.80;;;;;;;;;;5107213;28;20055;-76
2022/04/11 15:14:36;;;;;;;2.85;0.80;;;;;;;;;;5106351;28;20058;-76
2022/04/11 15:17:14;;;;;;;1.98;0.88;;;;;;;;;;5105969;28;20054;-76
2022/04/11 15:19:45;;;;;;;1.70;0.80;;;;;;;;;;5106234;28;20054;-76
2022/04/11 15:22:15;;;;;;;1.90;0.90;;;;;;;;;;5106833;28;20043;-76
2022/04/11 15:24:45;;;;;;;2.75;0.90;;;;;;;;;;5088089;28;20055;-76
2022/04/11 15:27:14;;;;;;;6.97;1.10;;;;;;;;;;5088162;28;20052;-76
2022/04/11 15:29:44;;;;;;;2.50;1.35;;;;;;;;;;5105749;28;20521;-75